sensor_id;sensor_type;location;lat;lon;timestamp;P1;durP1;ratioP1;P2;durP2;ratioP2
73951;SDS011;62304;47.662;18.324;2023-06-22T00:00:31;12.17;;;3.30;;
73951;SDS011;62304;47.662;18.324;2023-06-22T00:03:34;10.85;;;3.15;;
73951;SDS011;62304;47.662;18.324;2023-06-22T00:06:37;8.77;;;3.22;;
73951;SDS011;62304;47.662;18.324;2023-06-22T00:09:41;9.32;;;3.50;;
73951;SDS011;62304;47.662;18.324;2023-06-22T00:12:43;7.90;;;3.25;;
73951;SDS011;62304;47.662;18.324;2023-06-22T00:15:47;9.23;;;3.30;;
73951;SDS011;62304;47.662;18.324;2023-06-22T00:18:49;12.27;;;3.67;;
73951;SDS011;62304;47.662;18.324;2023-06-22T00:21:52;11.12;;;3.53;;
73951;SDS011;62304;47.662;18.324;2023-06-22T00:24:55;9.95;;;3.78;;
73951;SDS011;62304;47.662;18.324;2023-06-22T00:27:59;9.77;;;3.53;;
73951;SDS011;62304;47.662;18.324;2023-06-22T00:31:01;9.73;;;4.10;;
73951;SDS011;62304;47.662;18.324;2023-06-22T00:34:05;9.45;;;3.92;;
73951;SDS011;62304;47.662;18.324;2023-06-22T00:37:09;8.85;;;3.87;;
73951;SDS011;62304;47.662;18.324;2023-06-22T00:40:14;9.65;;;4.05;;
73951;SDS011;62304;47.662;18.324;2023-06-22T00:43:16;10.40;;;4.35;;
73951;SDS011;62304;47.662;18.324;2023-06-22T00:46:20;9.37;;;3.97;;
73951;SDS011;62304;47.662;18.324;2023-06-22T00:49:24;12.82;;;4.82;;
73951;SDS011;62304;47.662;18.324;2023-06-22T00:52:28;10.23;;;4.55;;
73951;SDS011;62304;47.662;18.324;2023-06-22T00:55:42;8.57;;;4.22;;
73951;SDS011;62304;47.662;18.324;2023-06-22T00:58:47;11.05;;;5.12;;
73951;SDS011;62304;47.662;18.324;2023-06-22T01:01:51;11.70;;;5.20;;
73951;SDS011;62304;47.662;18.324;2023-06-22T01:04:54;13.73;;;5.50;;
73951;SDS011;62304;47.662;18.324;2023-06-22T01:11:27;12.80;;;5.50;;
73951;SDS011;62304;47.662;18.324;2023-06-22T01:14:38;11.85;;;5.00;;
73951;SDS011;62304;47.662;18.324;2023-06-22T01:17:42;10.43;;;5.33;;
73951;SDS011;62304;47.662;18.324;2023-06-22T01:20:47;11.30;;;5.03;;
73951;SDS011;62304;47.662;18.324;2023-06-22T01:30:30;11.82;;;5.30;;
73951;SDS011;62304;47.662;18.324;2023-06-22T01:33:39;9.70;;;4.53;;
73951;SDS011;62304;47.662;18.324;2023-06-22T01:36:48;11.55;;;4.50;;
73951;SDS011;62304;47.662;18.324;2023-06-22T01:39:52;9.82;;;4.75;;
73951;SDS011;62304;47.662;18.324;2023-06-22T01:42:58;9.60;;;3.95;;
73951;SDS011;62304;47.662;18.324;2023-06-22T01:46:03;11.10;;;5.35;;
73951;SDS011;62304;47.662;18.324;2023-06-22T01:49:06;13.10;;;4.97;;
73951;SDS011;62304;47.662;18.324;2023-06-22T01:52:11;9.43;;;4.53;;
73951;SDS011;62304;47.662;18.324;2023-06-22T01:55:14;9.93;;;4.28;;
73951;SDS011;62304;47.662;18.324;2023-06-22T01:58:17;9.60;;;4.80;;
73951;SDS011;62304;47.662;18.324;2023-06-22T02:01:25;10.10;;;4.82;;
73951;SDS011;62304;47.662;18.324;2023-06-22T02:11:26;10.70;;;5.03;;
73951;SDS011;62304;47.662;18.324;2023-06-22T02:14:31;12.73;;;4.40;;
73951;SDS011;62304;47.662;18.324;2023-06-22T02:17:37;14.73;;;5.10;;
73951;SDS011;62304;47.662;18.324;2023-06-22T02:20:41;11.77;;;4.93;;
73951;SDS011;62304;47.662;18.324;2023-06-22T02:23:43;9.40;;;4.85;;
73951;SDS011;62304;47.662;18.324;2023-06-22T02:26:47;11.07;;;5.20;;
73951;SDS011;62304;47.662;18.324;2023-06-22T02:29:50;13.15;;;4.82;;
73951;SDS011;62304;47.662;18.324;2023-06-22T02:32:53;12.80;;;5.05;;
73951;SDS011;62304;47.662;18.324;2023-06-22T02:36:01;12.97;;;4.77;;
73951;SDS011;62304;47.662;18.324;2023-06-22T02:39:07;12.70;;;4.80;;
73951;SDS011;62304;47.662;18.324;2023-06-22T02:42:11;13.70;;;5.03;;
73951;SDS011;62304;47.662;18.324;2023-06-22T02:45:14;10.52;;;4.93;;
73951;SDS011;62304;47.662;18.324;2023-06-22T02:48:18;15.00;;;4.68;;
73951;SDS011;62304;47.662;18.324;2023-06-22T02:51:21;12.97;;;5.20;;
73951;SDS011;62304;47.662;18.324;2023-06-22T02:54:23;12.05;;;5.05;;
73951;SDS011;62304;47.662;18.324;2023-06-22T02:57:27;15.52;;;5.20;;
73951;SDS011;62304;47.662;18.324;2023-06-22T03:00:31;13.82;;;5.12;;
73951;SDS011;62304;47.662;18.324;2023-06-22T03:03:34;16.35;;;5.45;;
73951;SDS011;62304;47.662;18.324;2023-06-22T03:06:38;14.30;;;5.13;;
73951;SDS011;62304;47.662;18.324;2023-06-22T03:09:43;14.68;;;5.68;;
73951;SDS011;62304;47.662;18.324;2023-06-22T03:12:46;15.13;;;5.32;;
73951;SDS011;62304;47.662;18.324;2023-06-22T03:15:49;11.90;;;4.93;;
73951;SDS011;62304;47.662;18.324;2023-06-22T03:18:53;13.55;;;4.60;;
73951;SDS011;62304;47.662;18.324;2023-06-22T03:21:56;11.47;;;4.90;;
73951;SDS011;62304;47.662;18.324;2023-06-22T03:25:00;13.68;;;5.37;;
73951;SDS011;62304;47.662;18.324;2023-06-22T03:28:03;12.60;;;5.10;;
73951;SDS011;62304;47.662;18.324;2023-06-22T03:31:06;14.05;;;5.12;;
73951;SDS011;62304;47.662;18.324;2023-06-22T03:34:10;12.25;;;5.05;;
73951;SDS011;62304;47.662;18.324;2023-06-22T03:37:13;13.63;;;5.40;;
73951;SDS011;62304;47.662;18.324;2023-06-22T03:40:17;13.07;;;5.07;;
73951;SDS011;62304;47.662;18.324;2023-06-22T03:43:20;10.77;;;5.28;;
73951;SDS011;62304;47.662;18.324;2023-06-22T03:46:23;13.02;;;5.72;;
73951;SDS011;62304;47.662;18.324;2023-06-22T03:49:26;10.70;;;5.50;;
73951;SDS011;62304;47.662;18.324;2023-06-22T03:52:29;13.67;;;5.13;;
73951;SDS011;62304;47.662;18.324;2023-06-22T03:55:33;15.00;;;6.22;;
73951;SDS011;62304;47.662;18.324;2023-06-22T03:58:37;15.40;;;6.15;;
73951;SDS011;62304;47.662;18.324;2023-06-22T04:01:45;10.88;;;5.35;;
73951;SDS011;62304;47.662;18.324;2023-06-22T04:04:49;13.20;;;5.82;;
73951;SDS011;62304;47.662;18.324;2023-06-22T04:07:51;14.00;;;6.20;;
73951;SDS011;62304;47.662;18.324;2023-06-22T04:10:55;10.98;;;4.90;;
73951;SDS011;62304;47.662;18.324;2023-06-22T04:13:58;12.68;;;5.00;;
73951;SDS011;62304;47.662;18.324;2023-06-22T04:17:01;14.87;;;5.37;;
73951;SDS011;62304;47.662;18.324;2023-06-22T04:20:04;14.60;;;5.80;;
73951;SDS011;62304;47.662;18.324;2023-06-22T04:23:07;13.03;;;5.60;;
73951;SDS011;62304;47.662;18.324;2023-06-22T04:26:10;11.18;;;5.20;;
73951;SDS011;62304;47.662;18.324;2023-06-22T04:29:14;11.95;;;5.55;;
73951;SDS011;62304;47.662;18.324;2023-06-22T04:32:17;10.45;;;5.35;;
73951;SDS011;62304;47.662;18.324;2023-06-22T04:35:20;14.75;;;6.40;;
73951;SDS011;62304;47.662;18.324;2023-06-22T04:38:24;11.63;;;5.57;;
73951;SDS011;62304;47.662;18.324;2023-06-22T04:41:27;17.80;;;6.50;;
73951;SDS011;62304;47.662;18.324;2023-06-22T04:44:30;11.45;;;6.07;;
73951;SDS011;62304;47.662;18.324;2023-06-22T04:47:34;13.38;;;6.40;;
73951;SDS011;62304;47.662;18.324;2023-06-22T04:50:37;15.95;;;6.82;;
73951;SDS011;62304;47.662;18.324;2023-06-22T04:53:41;15.07;;;6.77;;
73951;SDS011;62304;47.662;18.324;2023-06-22T04:56:44;15.07;;;6.07;;
73951;SDS011;62304;47.662;18.324;2023-06-22T04:59:49;28.62;;;12.32;;
73951;SDS011;62304;47.662;18.324;2023-06-22T05:02:52;17.20;;;7.90;;
73951;SDS011;62304;47.662;18.324;2023-06-22T05:06:05;18.85;;;7.03;;
73951;SDS011;62304;47.662;18.324;2023-06-22T05:09:08;14.67;;;5.53;;
73951;SDS011;62304;47.662;18.324;2023-06-22T05:12:12;18.48;;;6.37;;
73951;SDS011;62304;47.662;18.324;2023-06-22T05:15:15;12.57;;;5.95;;
73951;SDS011;62304;47.662;18.324;2023-06-22T05:18:18;10.98;;;5.20;;
73951;SDS011;62304;47.662;18.324;2023-06-22T05:21:26;13.38;;;5.43;;
73951;SDS011;62304;47.662;18.324;2023-06-22T05:24:30;13.27;;;4.87;;
73951;SDS011;62304;47.662;18.324;2023-06-22T05:27:32;15.52;;;5.93;;
73951;SDS011;62304;47.662;18.324;2023-06-22T05:30:36;14.00;;;5.75;;
73951;SDS011;62304;47.662;18.324;2023-06-22T05:33:39;10.40;;;5.47;;
73951;SDS011;62304;47.662;18.324;2023-06-22T05:36:43;13.27;;;4.90;;
73951;SDS011;62304;47.662;18.324;2023-06-22T05:39:46;20.63;;;6.43;;
73951;SDS011;62304;47.662;18.324;2023-06-22T05:42:49;24.30;;;6.25;;
73951;SDS011;62304;47.662;18.324;2023-06-22T05:45:52;31.48;;;7.10;;
73951;SDS011;62304;47.662;18.324;2023-06-22T05:48:55;28.80;;;5.97;;
73951;SDS011;62304;47.662;18.324;2023-06-22T05:52:03;19.67;;;5.68;;
73951;SDS011;62304;47.662;18.324;2023-06-22T05:55:06;17.10;;;5.50;;
73951;SDS011;62304;47.662;18.324;2023-06-22T05:58:10;16.00;;;5.60;;
73951;SDS011;62304;47.662;18.324;2023-06-22T06:01:14;13.62;;;5.05;;
73951;SDS011;62304;47.662;18.324;2023-06-22T06:04:26;17.42;;;5.22;;
73951;SDS011;62304;47.662;18.324;2023-06-22T06:07:30;12.57;;;5.57;;
73951;SDS011;62304;47.662;18.324;2023-06-22T06:10:36;16.27;;;4.90;;
73951;SDS011;62304;47.662;18.324;2023-06-22T06:13:40;17.50;;;5.80;;
73951;SDS011;62304;47.662;18.324;2023-06-22T06:16:43;21.30;;;5.75;;
73951;SDS011;62304;47.662;18.324;2023-06-22T06:19:46;16.23;;;4.78;;
73951;SDS011;62304;47.662;18.324;2023-06-22T06:22:49;14.23;;;5.60;;
73951;SDS011;62304;47.662;18.324;2023-06-22T06:25:52;14.03;;;4.90;;
73951;SDS011;62304;47.662;18.324;2023-06-22T06:28:55;14.10;;;4.75;;
73951;SDS011;62304;47.662;18.324;2023-06-22T06:31:59;14.30;;;5.12;;
73951;SDS011;62304;47.662;18.324;2023-06-22T06:35:04;18.10;;;4.80;;
73951;SDS011;62304;47.662;18.324;2023-06-22T06:38:08;13.20;;;5.22;;
73951;SDS011;62304;47.662;18.324;2023-06-22T06:41:11;12.63;;;4.83;;
73951;SDS011;62304;47.662;18.324;2023-06-22T06:44:14;13.35;;;4.60;;
73951;SDS011;62304;47.662;18.324;2023-06-22T06:47:17;16.33;;;5.20;;
73951;SDS011;62304;47.662;18.324;2023-06-22T06:50:20;17.52;;;5.20;;
73951;SDS011;62304;47.662;18.324;2023-06-22T06:53:24;21.58;;;5.25;;
73951;SDS011;62304;47.662;18.324;2023-06-22T06:56:26;13.43;;;4.90;;
73951;SDS011;62304;47.662;18.324;2023-06-22T06:59:30;12.40;;;5.00;;
73951;SDS011;62304;47.662;18.324;2023-06-22T07:02:32;16.55;;;4.60;;
73951;SDS011;62304;47.662;18.324;2023-06-22T07:05:37;9.07;;;4.35;;
73951;SDS011;62304;47.662;18.324;2023-06-22T07:08:39;12.02;;;5.37;;
73951;SDS011;62304;47.662;18.324;2023-06-22T07:11:43;14.53;;;5.43;;
73951;SDS011;62304;47.662;18.324;2023-06-22T07:14:45;12.70;;;5.15;;
73951;SDS011;62304;47.662;18.324;2023-06-22T07:17:48;12.23;;;5.10;;
73951;SDS011;62304;47.662;18.324;2023-06-22T07:20:52;12.00;;;5.35;;
73951;SDS011;62304;47.662;18.324;2023-06-22T07:23:55;11.63;;;5.03;;
73951;SDS011;62304;47.662;18.324;2023-06-22T07:26:59;12.33;;;4.70;;
73951;SDS011;62304;47.662;18.324;2023-06-22T07:30:03;12.25;;;4.82;;
73951;SDS011;62304;47.662;18.324;2023-06-22T07:33:07;12.82;;;5.37;;
73951;SDS011;62304;47.662;18.324;2023-06-22T07:36:11;15.73;;;5.65;;
73951;SDS011;62304;47.662;18.324;2023-06-22T07:39:14;13.32;;;4.87;;
73951;SDS011;62304;47.662;18.324;2023-06-22T07:42:17;12.53;;;5.40;;
73951;SDS011;62304;47.662;18.324;2023-06-22T07:45:21;12.70;;;4.90;;
73951;SDS011;62304;47.662;18.324;2023-06-22T07:48:24;11.15;;;4.57;;
73951;SDS011;62304;47.662;18.324;2023-06-22T07:51:27;13.70;;;5.43;;
73951;SDS011;62304;47.662;18.324;2023-06-22T07:54:30;10.23;;;4.90;;
73951;SDS011;62304;47.662;18.324;2023-06-22T07:57:33;14.87;;;4.20;;
73951;SDS011;62304;47.662;18.324;2023-06-22T08:00:37;13.88;;;4.43;;
73951;SDS011;62304;47.662;18.324;2023-06-22T08:03:40;13.10;;;4.80;;
73951;SDS011;62304;47.662;18.324;2023-06-22T08:06:43;18.75;;;5.50;;
73951;SDS011;62304;47.662;18.324;2023-06-22T08:09:47;24.00;;;5.47;;
73951;SDS011;62304;47.662;18.324;2023-06-22T08:12:51;15.73;;;4.43;;
73951;SDS011;62304;47.662;18.324;2023-06-22T08:15:55;26.65;;;5.62;;
73951;SDS011;62304;47.662;18.324;2023-06-22T08:18:58;11.75;;;4.20;;
73951;SDS011;62304;47.662;18.324;2023-06-22T08:22:01;15.10;;;4.97;;
73951;SDS011;62304;47.662;18.324;2023-06-22T08:25:04;13.38;;;4.32;;
73951;SDS011;62304;47.662;18.324;2023-06-22T08:28:07;15.20;;;4.80;;
73951;SDS011;62304;47.662;18.324;2023-06-22T08:31:10;11.18;;;4.30;;
73951;SDS011;62304;47.662;18.324;2023-06-22T08:34:15;11.00;;;4.32;;
73951;SDS011;62304;47.662;18.324;2023-06-22T08:37:19;10.00;;;4.32;;
73951;SDS011;62304;47.662;18.324;2023-06-22T08:40:23;24.75;;;5.70;;
73951;SDS011;62304;47.662;18.324;2023-06-22T08:43:26;11.43;;;4.27;;
73951;SDS011;62304;47.662;18.324;2023-06-22T08:46:29;9.63;;;4.60;;
73951;SDS011;62304;47.662;18.324;2023-06-22T08:49:34;13.30;;;4.87;;
73951;SDS011;62304;47.662;18.324;2023-06-22T08:52:37;10.50;;;4.50;;
73951;SDS011;62304;47.662;18.324;2023-06-22T08:55:43;11.95;;;4.90;;
73951;SDS011;62304;47.662;18.324;2023-06-22T08:58:47;8.83;;;4.37;;
73951;SDS011;62304;47.662;18.324;2023-06-22T09:01:50;10.35;;;4.30;;
73951;SDS011;62304;47.662;18.324;2023-06-22T09:04:53;14.73;;;5.22;;
73951;SDS011;62304;47.662;18.324;2023-06-22T09:07:58;13.48;;;4.32;;
73951;SDS011;62304;47.662;18.324;2023-06-22T09:11:01;10.70;;;4.57;;
73951;SDS011;62304;47.662;18.324;2023-06-22T09:14:04;10.47;;;4.00;;
73951;SDS011;62304;47.662;18.324;2023-06-22T09:17:07;13.65;;;5.12;;
73951;SDS011;62304;47.662;18.324;2023-06-22T09:20:10;10.32;;;5.22;;
73951;SDS011;62304;47.662;18.324;2023-06-22T09:23:14;10.98;;;5.62;;
73951;SDS011;62304;47.662;18.324;2023-06-22T09:26:17;7.93;;;4.65;;
73951;SDS011;62304;47.662;18.324;2023-06-22T09:29:21;8.80;;;4.43;;
73951;SDS011;62304;47.662;18.324;2023-06-22T09:32:24;9.18;;;4.80;;
73951;SDS011;62304;47.662;18.324;2023-06-22T09:35:28;10.10;;;4.80;;
73951;SDS011;62304;47.662;18.324;2023-06-22T09:38:31;13.05;;;5.03;;
73951;SDS011;62304;47.662;18.324;2023-06-22T09:41:34;8.57;;;5.22;;
73951;SDS011;62304;47.662;18.324;2023-06-22T09:44:37;11.97;;;5.13;;
73951;SDS011;62304;47.662;18.324;2023-06-22T09:47:40;8.27;;;4.47;;
73951;SDS011;62304;47.662;18.324;2023-06-22T09:50:43;12.25;;;5.25;;
73951;SDS011;62304;47.662;18.324;2023-06-22T09:53:47;10.25;;;5.10;;
73951;SDS011;62304;47.662;18.324;2023-06-22T09:56:50;10.35;;;5.57;;
73951;SDS011;62304;47.662;18.324;2023-06-22T09:59:53;11.43;;;5.50;;
73951;SDS011;62304;47.662;18.324;2023-06-22T10:02:56;12.93;;;5.70;;
73951;SDS011;62304;47.662;18.324;2023-06-22T10:06:03;14.57;;;5.68;;
73951;SDS011;62304;47.662;18.324;2023-06-22T10:09:07;11.45;;;5.15;;
73951;SDS011;62304;47.662;18.324;2023-06-22T10:12:10;10.07;;;5.00;;
73951;SDS011;62304;47.662;18.324;2023-06-22T10:15:14;9.30;;;4.83;;
73951;SDS011;62304;47.662;18.324;2023-06-22T10:18:18;10.10;;;5.10;;
73951;SDS011;62304;47.662;18.324;2023-06-22T10:21:21;12.55;;;5.07;;
73951;SDS011;62304;47.662;18.324;2023-06-22T10:24:24;11.70;;;4.85;;
73951;SDS011;62304;47.662;18.324;2023-06-22T10:27:28;11.80;;;5.37;;
73951;SDS011;62304;47.662;18.324;2023-06-22T10:30:31;11.57;;;5.20;;
73951;SDS011;62304;47.662;18.324;2023-06-22T10:33:34;9.30;;;5.20;;
73951;SDS011;62304;47.662;18.324;2023-06-22T10:36:37;10.85;;;5.72;;
73951;SDS011;62304;47.662;18.324;2023-06-22T10:39:40;13.00;;;5.37;;
73951;SDS011;62304;47.662;18.324;2023-06-22T10:42:44;11.15;;;5.45;;
73951;SDS011;62304;47.662;18.324;2023-06-22T10:45:47;15.13;;;5.97;;
73951;SDS011;62304;47.662;18.324;2023-06-22T10:48:50;9.10;;;5.43;;
73951;SDS011;62304;47.662;18.324;2023-06-22T10:51:53;11.88;;;5.35;;
73951;SDS011;62304;47.662;18.324;2023-06-22T10:54:56;14.20;;;5.35;;
73951;SDS011;62304;47.662;18.324;2023-06-22T10:58:00;13.40;;;5.95;;
73951;SDS011;62304;47.662;18.324;2023-06-22T11:01:03;11.33;;;5.20;;
73951;SDS011;62304;47.662;18.324;2023-06-22T11:04:06;10.65;;;5.37;;
73951;SDS011;62304;47.662;18.324;2023-06-22T11:07:10;12.07;;;5.43;;
73951;SDS011;62304;47.662;18.324;2023-06-22T11:10:13;9.65;;;5.30;;
73951;SDS011;62304;47.662;18.324;2023-06-22T11:13:16;10.10;;;5.82;;
73951;SDS011;62304;47.662;18.324;2023-06-22T11:16:19;11.30;;;5.53;;
73951;SDS011;62304;47.662;18.324;2023-06-22T11:19:22;10.95;;;4.95;;
73951;SDS011;62304;47.662;18.324;2023-06-22T11:22:25;14.70;;;6.28;;
73951;SDS011;62304;47.662;18.324;2023-06-22T11:25:28;13.15;;;6.10;;
73951;SDS011;62304;47.662;18.324;2023-06-22T11:28:31;11.63;;;5.30;;
73951;SDS011;62304;47.662;18.324;2023-06-22T11:31:34;11.67;;;5.57;;
73951;SDS011;62304;47.662;18.324;2023-06-22T11:34:38;10.30;;;5.85;;
73951;SDS011;62304;47.662;18.324;2023-06-22T11:37:41;11.45;;;5.90;;
73951;SDS011;62304;47.662;18.324;2023-06-22T11:40:47;11.88;;;5.72;;
73951;SDS011;62304;47.662;18.324;2023-06-22T11:43:50;14.25;;;5.80;;
73951;SDS011;62304;47.662;18.324;2023-06-22T11:46:52;11.77;;;5.20;;
73951;SDS011;62304;47.662;18.324;2023-06-22T11:49:55;12.93;;;5.40;;
73951;SDS011;62304;47.662;18.324;2023-06-22T11:52:58;10.15;;;5.72;;
73951;SDS011;62304;47.662;18.324;2023-06-22T11:56:01;11.75;;;5.65;;
73951;SDS011;62304;47.662;18.324;2023-06-22T11:59:04;14.23;;;8.73;;
73951;SDS011;62304;47.662;18.324;2023-06-22T12:02:08;10.93;;;5.70;;
73951;SDS011;62304;47.662;18.324;2023-06-22T12:05:12;13.45;;;5.72;;
73951;SDS011;62304;47.662;18.324;2023-06-22T12:08:15;9.82;;;5.85;;
73951;SDS011;62304;47.662;18.324;2023-06-22T12:11:18;9.90;;;6.22;;
73951;SDS011;62304;47.662;18.324;2023-06-22T12:14:21;12.85;;;6.60;;
73951;SDS011;62304;47.662;18.324;2023-06-22T12:17:24;10.47;;;6.10;;
73951;SDS011;62304;47.662;18.324;2023-06-22T12:20:27;13.65;;;6.00;;
73951;SDS011;62304;47.662;18.324;2023-06-22T12:23:30;8.90;;;5.72;;
73951;SDS011;62304;47.662;18.324;2023-06-22T12:26:33;9.75;;;5.35;;
73951;SDS011;62304;47.662;18.324;2023-06-22T12:29:36;13.18;;;5.60;;
73951;SDS011;62304;47.662;18.324;2023-06-22T12:32:39;10.40;;;5.80;;
73951;SDS011;62304;47.662;18.324;2023-06-22T12:35:43;10.52;;;5.82;;
73951;SDS011;62304;47.662;18.324;2023-06-22T12:38:47;11.38;;;5.95;;
73951;SDS011;62304;47.662;18.324;2023-06-22T12:41:50;11.95;;;6.82;;
73951;SDS011;62304;47.662;18.324;2023-06-22T12:44:53;12.40;;;7.55;;
73951;SDS011;62304;47.662;18.324;2023-06-22T12:47:57;17.77;;;7.33;;
73951;SDS011;62304;47.662;18.324;2023-06-22T12:51:00;10.20;;;5.75;;
73951;SDS011;62304;47.662;18.324;2023-06-22T12:54:03;11.05;;;6.18;;
73951;SDS011;62304;47.662;18.324;2023-06-22T12:57:07;12.60;;;6.45;;
73951;SDS011;62304;47.662;18.324;2023-06-22T13:00:10;11.38;;;6.87;;
73951;SDS011;62304;47.662;18.324;2023-06-22T13:03:14;12.47;;;6.67;;
73951;SDS011;62304;47.662;18.324;2023-06-22T13:06:17;12.27;;;6.12;;
73951;SDS011;62304;47.662;18.324;2023-06-22T13:09:20;12.57;;;6.62;;
73951;SDS011;62304;47.662;18.324;2023-06-22T13:12:23;16.95;;;6.18;;
73951;SDS011;62304;47.662;18.324;2023-06-22T13:15:27;10.43;;;6.25;;
73951;SDS011;62304;47.662;18.324;2023-06-22T13:18:32;14.67;;;7.60;;
73951;SDS011;62304;47.662;18.324;2023-06-22T13:21:36;15.13;;;7.35;;
73951;SDS011;62304;47.662;18.324;2023-06-22T13:24:39;14.32;;;6.97;;
73951;SDS011;62304;47.662;18.324;2023-06-22T13:27:42;9.73;;;6.68;;
73951;SDS011;62304;47.662;18.324;2023-06-22T13:30:45;14.40;;;7.25;;
73951;SDS011;62304;47.662;18.324;2023-06-22T13:33:49;9.77;;;6.60;;
73951;SDS011;62304;47.662;18.324;2023-06-22T13:36:54;12.95;;;7.55;;
73951;SDS011;62304;47.662;18.324;2023-06-22T13:39:57;12.27;;;7.28;;
73951;SDS011;62304;47.662;18.324;2023-06-22T13:43:02;10.10;;;6.15;;
73951;SDS011;62304;47.662;18.324;2023-06-22T13:46:05;12.48;;;7.45;;
73951;SDS011;62304;47.662;18.324;2023-06-22T13:49:08;10.20;;;7.10;;
73951;SDS011;62304;47.662;18.324;2023-06-22T13:52:11;17.12;;;6.90;;
73951;SDS011;62304;47.662;18.324;2023-06-22T13:55:15;12.75;;;7.20;;
73951;SDS011;62304;47.662;18.324;2023-06-22T13:58:18;13.32;;;7.07;;
73951;SDS011;62304;47.662;18.324;2023-06-22T14:01:22;14.70;;;7.35;;
73951;SDS011;62304;47.662;18.324;2023-06-22T14:04:25;10.27;;;6.70;;
73951;SDS011;62304;47.662;18.324;2023-06-22T14:07:28;12.68;;;7.65;;
73951;SDS011;62304;47.662;18.324;2023-06-22T14:10:32;12.07;;;8.35;;
73951;SDS011;62304;47.662;18.324;2023-06-22T14:13:34;11.35;;;7.35;;
73951;SDS011;62304;47.662;18.324;2023-06-22T14:16:38;18.05;;;9.43;;
73951;SDS011;62304;47.662;18.324;2023-06-22T14:19:41;14.07;;;8.90;;
73951;SDS011;62304;47.662;18.324;2023-06-22T14:22:44;9.25;;;6.82;;
73951;SDS011;62304;47.662;18.324;2023-06-22T14:25:47;15.93;;;8.02;;
73951;SDS011;62304;47.662;18.324;2023-06-22T14:28:50;12.10;;;7.72;;
73951;SDS011;62304;47.662;18.324;2023-06-22T14:31:53;12.23;;;7.45;;
73951;SDS011;62304;47.662;18.324;2023-06-22T14:34:56;13.90;;;7.73;;
73951;SDS011;62304;47.662;18.324;2023-06-22T14:38:18;13.57;;;7.75;;
73951;SDS011;62304;47.662;18.324;2023-06-22T14:41:21;15.50;;;7.45;;
73951;SDS011;62304;47.662;18.324;2023-06-22T14:44:24;11.85;;;6.60;;
73951;SDS011;62304;47.662;18.324;2023-06-22T14:47:27;10.65;;;7.80;;
73951;SDS011;62304;47.662;18.324;2023-06-22T14:50:31;15.53;;;7.60;;
73951;SDS011;62304;47.662;18.324;2023-06-22T14:53:34;14.38;;;7.95;;
73951;SDS011;62304;47.662;18.324;2023-06-22T14:56:37;13.25;;;8.27;;
73951;SDS011;62304;47.662;18.324;2023-06-22T14:59:40;12.60;;;8.23;;
73951;SDS011;62304;47.662;18.324;2023-06-22T15:02:43;9.30;;;6.62;;
73951;SDS011;62304;47.662;18.324;2023-06-22T15:05:46;11.87;;;7.27;;
73951;SDS011;62304;47.662;18.324;2023-06-22T15:08:48;13.57;;;7.72;;
73951;SDS011;62304;47.662;18.324;2023-06-22T15:11:52;14.27;;;8.23;;
73951;SDS011;62304;47.662;18.324;2023-06-22T15:14:54;13.10;;;8.05;;
73951;SDS011;62304;47.662;18.324;2023-06-22T15:17:57;12.57;;;7.75;;
73951;SDS011;62304;47.662;18.324;2023-06-22T15:21:01;17.63;;;8.30;;
73951;SDS011;62304;47.662;18.324;2023-06-22T15:24:05;16.25;;;7.95;;
73951;SDS011;62304;47.662;18.324;2023-06-22T15:27:08;12.40;;;7.53;;
73951;SDS011;62304;47.662;18.324;2023-06-22T15:30:11;16.87;;;8.00;;
73951;SDS011;62304;47.662;18.324;2023-06-22T15:33:14;13.10;;;8.55;;
73951;SDS011;62304;47.662;18.324;2023-06-22T15:36:18;15.43;;;8.67;;
73951;SDS011;62304;47.662;18.324;2023-06-22T15:39:21;15.05;;;8.45;;
73951;SDS011;62304;47.662;18.324;2023-06-22T15:42:25;14.35;;;8.57;;
73951;SDS011;62304;47.662;18.324;2023-06-22T15:45:28;12.25;;;7.68;;
73951;SDS011;62304;47.662;18.324;2023-06-22T15:48:31;17.27;;;9.00;;
73951;SDS011;62304;47.662;18.324;2023-06-22T15:51:34;12.90;;;8.03;;
73951;SDS011;62304;47.662;18.324;2023-06-22T15:54:37;12.32;;;8.05;;
73951;SDS011;62304;47.662;18.324;2023-06-22T15:57:40;14.40;;;8.43;;
73951;SDS011;62304;47.662;18.324;2023-06-22T16:00:43;13.57;;;8.23;;
73951;SDS011;62304;47.662;18.324;2023-06-22T16:03:51;15.35;;;9.18;;
73951;SDS011;62304;47.662;18.324;2023-06-22T16:06:54;14.27;;;8.90;;
73951;SDS011;62304;47.662;18.324;2023-06-22T16:09:57;12.23;;;8.27;;
73951;SDS011;62304;47.662;18.324;2023-06-22T16:12:59;17.25;;;9.15;;
73951;SDS011;62304;47.662;18.324;2023-06-22T16:16:03;16.02;;;8.80;;
73951;SDS011;62304;47.662;18.324;2023-06-22T16:19:06;17.40;;;9.40;;
73951;SDS011;62304;47.662;18.324;2023-06-22T16:22:09;15.03;;;9.13;;
73951;SDS011;62304;47.662;18.324;2023-06-22T16:25:12;13.30;;;8.73;;
73951;SDS011;62304;47.662;18.324;2023-06-22T16:28:16;14.45;;;8.75;;
73951;SDS011;62304;47.662;18.324;2023-06-22T16:31:18;12.93;;;8.13;;
73951;SDS011;62304;47.662;18.324;2023-06-22T16:34:22;14.32;;;8.25;;
73951;SDS011;62304;47.662;18.324;2023-06-22T16:37:25;14.60;;;8.73;;
73951;SDS011;62304;47.662;18.324;2023-06-22T16:40:28;14.95;;;8.85;;
73951;SDS011;62304;47.662;18.324;2023-06-22T16:43:32;13.32;;;9.02;;
73951;SDS011;62304;47.662;18.324;2023-06-22T16:46:35;12.13;;;8.60;;
73951;SDS011;62304;47.662;18.324;2023-06-22T16:49:39;11.85;;;8.60;;
73951;SDS011;62304;47.662;18.324;2023-06-22T16:52:42;18.03;;;9.50;;
73951;SDS011;62304;47.662;18.324;2023-06-22T16:55:47;16.02;;;9.23;;
73951;SDS011;62304;47.662;18.324;2023-06-22T16:58:52;15.40;;;8.98;;
73951;SDS011;62304;47.662;18.324;2023-06-22T17:02:12;14.25;;;8.80;;
73951;SDS011;62304;47.662;18.324;2023-06-22T17:05:22;24.50;;;21.83;;
73951;SDS011;62304;47.662;18.324;2023-06-22T17:08:26;13.10;;;8.80;;
73951;SDS011;62304;47.662;18.324;2023-06-22T17:11:35;13.35;;;8.13;;
73951;SDS011;62304;47.662;18.324;2023-06-22T17:14:39;16.33;;;9.35;;
73951;SDS011;62304;47.662;18.324;2023-06-22T17:17:47;21.60;;;9.48;;
73951;SDS011;62304;47.662;18.324;2023-06-22T17:20:50;17.52;;;8.63;;
73951;SDS011;62304;47.662;18.324;2023-06-22T17:23:54;14.00;;;9.10;;
73951;SDS011;62304;47.662;18.324;2023-06-22T17:26:58;13.02;;;8.63;;
73951;SDS011;62304;47.662;18.324;2023-06-22T17:30:08;15.77;;;9.27;;
73951;SDS011;62304;47.662;18.324;2023-06-22T17:33:20;14.77;;;8.48;;
73951;SDS011;62304;47.662;18.324;2023-06-22T17:36:23;13.27;;;8.95;;
73951;SDS011;62304;47.662;18.324;2023-06-22T17:39:28;12.67;;;9.03;;
73951;SDS011;62304;47.662;18.324;2023-06-22T17:42:32;13.75;;;8.80;;
73951;SDS011;62304;47.662;18.324;2023-06-22T17:45:41;17.42;;;9.25;;
73951;SDS011;62304;47.662;18.324;2023-06-22T17:48:47;13.07;;;8.95;;
73951;SDS011;62304;47.662;18.324;2023-06-22T17:51:50;15.25;;;9.30;;
73951;SDS011;62304;47.662;18.324;2023-06-22T17:54:54;11.27;;;8.63;;
73951;SDS011;62304;47.662;18.324;2023-06-22T17:58:04;13.88;;;9.70;;
73951;SDS011;62304;47.662;18.324;2023-06-22T18:01:07;16.20;;;9.73;;
73951;SDS011;62304;47.662;18.324;2023-06-22T18:04:12;15.20;;;9.65;;
73951;SDS011;62304;47.662;18.324;2023-06-22T18:07:16;14.75;;;9.50;;
73951;SDS011;62304;47.662;18.324;2023-06-22T18:10:20;14.67;;;10.00;;
73951;SDS011;62304;47.662;18.324;2023-06-22T18:13:24;14.57;;;9.82;;